Time;durP1;ratioP1;P1;durP2;ratioP2;P2;SDS_P1;SDS_P2;PMS_P1;PMS_P2;Temp;Humidity;BMP_temperature;BMP_pressure;BME280_temperature;BME280_humidity;BME280_pressure;Samples;Min_cycle;Max_cycle;Signal;HPM_P1;HPM_P2
2021/08/31 00:02:01;;;;;;;2.58;1.83;;;16.60;89.40;;;;;;5137967;27;20064;-76
2021/08/31 00:04:27;;;;;;;2.35;2.03;;;16.60;89.40;;;;;;5137704;27;20080;-78
2021/08/31 00:06:52;;;;;;;3.03;2.40;;;16.50;89.50;;;;;;5137896;27;20459;-77
2021/08/31 00:09:19;;;;;;;2.28;1.98;;;16.50;89.60;;;;;;5137432;27;20027;-76
2021/08/31 00:11:45;;;;;;;3.42;2.33;;;16.50;89.60;;;;;;5137538;27;20019;-78
2021/08/31 00:14:12;;;;;;;1.58;1.48;;;16.50;89.60;;;;;;5137665;27;20027;-78
2021/08/31 00:16:38;;;;;;;2.17;1.75;;;16.50;89.60;;;;;;5119290;27;20460;-78
2021/08/31 00:19:03;;;;;;;2.95;2.00;;;16.50;89.70;;;;;;5137202;27;20051;-77
2021/08/31 00:21:29;;;;;;;2.75;2.08;;;16.40;89.70;;;;;;5137470;27;20026;-78
2021/08/31 00:23:54;;;;;;;3.83;2.13;;;16.40;89.80;;;;;;5137078;27;20023;-77
2021/08/31 00:26:20;;;;;;;1.55;1.45;;;16.40;89.80;;;;;;5137429;27;20019;-76
2021/08/31 00:28:45;;;;;;;2.50;2.00;;;16.40;89.90;;;;;;5137445;27;20031;-76
2021/08/31 00:31:11;;;;;;;3.25;2.30;;;16.40;89.90;;;;;;5137426;27;20092;-76
2021/08/31 00:33:36;;;;;;;3.38;1.83;;;16.40;89.90;;;;;;5137177;27;20025;-77
2021/08/31 00:36:04;;;;;;;3.15;2.53;;;16.40;90.00;;;;;;5137110;27;20106;-77
2021/08/31 00:38:30;;;;;;;2.80;2.20;;;16.30;90.00;;;;;;5136662;27;20162;-77
2021/08/31 00:40:56;;;;;;;2.03;1.67;;;16.30;90.00;;;;;;5137095;27;20023;-77
2021/08/31 00:43:22;;;;;;;4.18;2.30;;;16.30;90.00;;;;;;5137090;27;20056;-76
2021/08/31 00:45:48;;;;;;;2.70;2.45;;;16.30;90.00;;;;;;5137135;27;20467;-77
2021/08/31 00:48:17;;;;;;;3.80;2.33;;;16.30;90.00;;;;;;5136976;27;20483;-78
2021/08/31 00:50:43;;;;;;;2.22;1.92;;;16.20;90.00;;;;;;5136967;27;20021;-76
2021/08/31 00:53:09;;;;;;;2.53;1.80;;;16.30;90.10;;;;;;5136371;27;20019;-76
2021/08/31 00:55:35;;;;;;;2.88;1.73;;;16.20;90.10;;;;;;5118415;27;20057;-77
2021/08/31 00:58:01;;;;;;;3.25;2.38;;;16.20;90.00;;;;;;5136212;27;20027;-76
2021/08/31 01:00:27;;;;;;;1.83;1.67;;;16.20;90.00;;;;;;5136762;27;20079;-76
2021/08/31 01:02:55;;;;;;;2.25;1.70;;;16.20;90.10;;;;;;5136589;27;20033;-77
2021/08/31 01:05:21;;;;;;;2.80;2.20;;;16.20;90.10;;;;;;5136723;27;20048;-75
2021/08/31 01:07:47;;;;;;;3.20;2.15;;;16.20;90.10;;;;;;5136158;27;20023;-77
2021/08/31 01:10:14;;;;;;;3.15;2.35;;;16.30;90.10;;;;;;5136432;27;20023;-75
2021/08/31 01:12:40;;;;;;;2.25;2.05;;;16.30;90.10;;;;;;5136470;27;20076;-77
2021/08/31 01:15:06;;;;;;;3.40;2.47;;;16.30;90.10;;;;;;5136447;27;20111;-76
2021/08/31 01:17:32;;;;;;;3.20;2.35;;;16.30;90.10;;;;;;5136117;27;20102;-76
2021/08/31 01:20:02;;;;;;;4.15;2.67;;;16.30;90.20;;;;;;5136345;27;20035;-75
2021/08/31 01:22:28;;;;;;;4.95;3.38;;;16.30;90.20;;;;;;5135847;27;20056;-76
2021/08/31 01:24:59;;;;;;;4.63;3.17;;;16.30;90.20;;;;;;5136278;27;20019;-76
2021/08/31 01:27:26;;;;;;;3.50;2.50;;;16.30;90.20;;;;;;5136257;27;20020;-77
2021/08/31 01:29:55;;;;;;;3.35;2.40;;;16.30;90.30;;;;;;5136347;27;20106;-75
2021/08/31 01:32:21;;;;;;;3.38;2.40;;;16.30;90.30;;;;;;5136141;27;20019;-75
2021/08/31 01:34:47;;;;;;;4.50;2.85;;;16.30;90.20;;;;;;5136160;27;20141;-76
2021/08/31 01:37:12;;;;;;;4.45;2.97;;;16.20;90.20;;;;;;5135566;27;20471;-77
2021/08/31 01:39:38;;;;;;;3.33;2.60;;;16.20;90.30;;;;;;5135905;27;20130;-76
2021/08/31 01:42:05;;;;;;;4.63;2.47;;;16.20;90.40;;;;;;5135932;27;20028;-76
2021/08/31 01:44:31;;;;;;;2.10;1.77;;;16.20;90.30;;;;;;5135983;27;20054;-78
2021/08/31 01:46:56;;;;;;;4.00;2.30;;;16.20;90.30;;;;;;5135732;27;20031;-77
2021/08/31 01:49:22;;;;;;;4.95;2.45;;;16.10;90.30;;;;;;5135736;27;20024;-76
2021/08/31 01:51:47;;;;;;;2.53;2.17;;;16.10;90.30;;;;;;5135745;27;20019;-76
2021/08/31 01:54:13;;;;;;;4.82;2.85;;;16.10;90.30;;;;;;5135667;27;20424;-76
2021/08/31 01:56:39;;;;;;;3.25;2.30;;;16.10;90.30;;;;;;5135611;27;20020;-77
2021/08/31 01:59:05;;;;;;;4.47;2.65;;;16.10;90.40;;;;;;5135655;27;20031;-77
2021/08/31 02:01:30;;;;;;;3.75;2.30;;;16.00;90.40;;;;;;5135630;27;20026;-77
2021/08/31 02:03:56;;;;;;;2.35;1.70;;;16.10;90.40;;;;;;5134943;27;20061;-77
2021/08/31 02:06:22;;;;;;;3.58;2.90;;;16.10;90.40;;;;;;5135453;27;20022;-76
2021/08/31 02:08:47;;;;;;;4.70;2.90;;;16.10;90.40;;;;;;5134389;27;20069;-76
2021/08/31 02:11:13;;;;;;;4.32;3.08;;;16.10;90.40;;;;;;5135421;27;20016;-76
2021/08/31 02:13:38;;;;;;;3.30;2.25;;;16.00;90.40;;;;;;5135318;27;20496;-77
2021/08/31 02:16:04;;;;;;;3.60;2.70;;;16.00;90.50;;;;;;5135284;27;20022;-78
2021/08/31 02:18:29;;;;;;;4.05;2.38;;;16.00;90.50;;;;;;5134413;27;20118;-77
2021/08/31 02:20:55;;;;;;;2.78;2.30;;;16.00;90.50;;;;;;5135150;27;20055;-77
2021/08/31 02:23:20;;;;;;;6.50;3.58;;;16.00;90.50;;;;;;5135139;27;20053;-76
2021/08/31 02:25:46;;;;;;;4.45;3.00;;;16.10;90.50;;;;;;5135062;27;20051;-77
2021/08/31 02:28:11;;;;;;;3.85;2.65;;;16.10;90.50;;;;;;5135136;27;20025;-77
2021/08/31 02:30:37;;;;;;;4.50;2.50;;;16.00;90.50;;;;;;5134973;27;20054;-77
2021/08/31 02:33:03;;;;;;;3.97;2.42;;;16.10;90.50;;;;;;5134506;27;20030;-76
2021/08/31 02:35:29;;;;;;;3.63;2.30;;;16.00;90.50;;;;;;5134955;27;20012;-76
2021/08/31 02:37:55;;;;;;;3.45;2.35;;;16.10;90.40;;;;;;5134909;27;20098;-77
2021/08/31 02:40:21;;;;;;;3.17;2.08;;;16.10;90.50;;;;;;5134779;27;20027;-77
2021/08/31 02:42:46;;;;;;;2.90;1.92;;;16.10;90.50;;;;;;5134883;27;20092;-78
2021/08/31 02:45:12;;;;;;;2.58;1.80;;;16.10;90.50;;;;;;5134670;27;20034;-78
2021/08/31 02:47:38;;;;;;;3.55;2.45;;;16.10;90.50;;;;;;5115940;27;20045;-77
2021/08/31 02:50:05;;;;;;;3.25;2.03;;;16.00;90.50;;;;;;5134897;27;20033;-77
2021/08/31 02:52:30;;;;;;;3.38;2.38;;;16.10;90.50;;;;;;5134759;27;20031;-77
2021/08/31 02:54:56;;;;;;;3.35;1.95;;;16.10;90.60;;;;;;5134691;27;20020;-77
2021/08/31 02:57:21;;;;;;;3.40;1.98;;;16.00;90.60;;;;;;5134701;27;20019;-77
2021/08/31 02:59:47;;;;;;;3.33;2.53;;;16.00;90.60;;;;;;5134500;27;20035;-76
2021/08/31 03:02:12;;;;;;;2.38;1.70;;;15.90;90.60;;;;;;5134206;27;20359;-76
2021/08/31 03:04:43;;;;;;;3.70;2.10;;;15.90;90.70;;;;;;5134510;27;20038;-77
2021/08/31 03:07:11;;;;;;;3.33;2.40;;;15.90;91.00;;;;;;5134680;27;20022;-78
2021/08/31 03:09:37;;;;;;;4.03;2.92;;;15.90;90.70;;;;;;5134401;27;20019;-76
2021/08/31 03:12:03;;;;;;;5.03;2.72;;;15.90;90.70;;;;;;5134388;28;20467;-76
2021/08/31 03:14:29;;;;;;;3.33;2.28;;;15.90;90.70;;;;;;5134413;27;20027;-77
2021/08/31 03:16:56;;;;;;;3.60;2.00;;;15.90;90.70;;;;;;5133937;27;20486;-77
2021/08/31 03:19:23;;;;;;;3.83;2.25;;;15.90;90.70;;;;;;5134053;28;20130;-76
2021/08/31 03:21:50;;;;;;;3.72;2.58;;;15.90;90.70;;;;;;5134022;27;20014;-76
2021/08/31 03:24:16;;;;;;;4.50;2.60;;;15.90;90.70;;;;;;5134282;28;20027;-76
2021/08/31 03:26:42;;;;;;;3.47;2.45;;;15.90;90.70;;;;;;5134203;28;20015;-77
2021/08/31 03:29:08;;;;;;;3.67;2.30;;;15.90;90.70;;;;;;5115838;28;20030;-77
2021/08/31 03:31:34;;;;;;;3.00;2.00;;;15.90;90.70;;;;;;5133745;28;20011;-77
2021/08/31 03:33:59;;;;;;;2.75;2.15;;;15.90;90.70;;;;;;5134192;28;20019;-76
2021/08/31 03:36:25;;;;;;;3.47;2.45;;;15.90;90.70;;;;;;5134184;28;20030;-77
2021/08/31 03:38:50;;;;;;;3.75;2.50;;;15.90;91.00;;;;;;5133974;28;20549;-75
2021/08/31 03:41:16;;;;;;;3.80;2.45;;;15.90;90.80;;;;;;5134183;28;20421;-76
2021/08/31 03:43:42;;;;;;;4.88;3.20;;;15.90;90.80;;;;;;5134099;28;20528;-76
2021/08/31 03:46:07;;;;;;;4.05;2.80;;;16.00;90.80;;;;;;5133513;28;20486;-76
2021/08/31 03:48:33;;;;;;;4.43;2.75;;;15.90;90.80;;;;;;5134004;28;20080;-75
2021/08/31 03:50:58;;;;;;;3.72;2.55;;;15.90;90.80;;;;;;5115605;28;20054;-76
2021/08/31 03:53:24;;;;;;;3.35;2.55;;;15.90;90.80;;;;;;5133950;28;20027;-78
2021/08/31 03:55:49;;;;;;;3.85;2.30;;;15.90;90.80;;;;;;5133913;28;20060;-76
2021/08/31 03:58:14;;;;;;;3.22;2.72;;;16.00;90.80;;;;;;5133897;28;20467;-73
2021/08/31 04:00:40;;;;;;;4.40;2.88;;;16.00;90.80;;;;;;5133433;28;20121;-76
2021/08/31 04:03:05;;;;;;;3.97;2.60;;;16.00;90.80;;;;;;5133861;28;20086;-76
2021/08/31 04:05:31;;;;;;;3.85;2.72;;;16.00;90.80;;;;;;5133971;28;20421;-77
2021/08/31 04:07:57;;;;;;;4.65;2.90;;;16.10;90.80;;;;;;5133896;28;20050;-77
2021/08/31 04:10:22;;;;;;;4.00;2.60;;;16.00;90.80;;;;;;5133884;28;20058;-77
2021/08/31 04:12:48;;;;;;;5.75;2.65;;;16.00;90.80;;;;;;5133946;28;20077;-77
2021/08/31 04:15:14;;;;;;;4.20;2.30;;;16.10;90.80;;;;;;5133312;28;20031;-77
2021/08/31 04:17:39;;;;;;;2.70;2.03;;;16.10;90.80;;;;;;5133497;28;20031;-76
2021/08/31 04:20:05;;;;;;;3.17;2.13;;;16.20;90.80;;;;;;5133766;28;20047;-75
2021/08/31 04:22:31;;;;;;;4.18;2.15;;;16.20;90.80;;;;;;5133772;28;20046;-77
2021/08/31 04:24:57;;;;;;;2.33;1.90;;;16.20;90.70;;;;;;5133723;28;20023;-78
2021/08/31 04:27:22;;;;;;;3.22;2.03;;;16.20;90.80;;;;;;5133570;28;20113;-76
2021/08/31 04:29:48;;;;;;;3.92;2.50;;;16.30;90.80;;;;;;5133194;28;20026;-76
2021/08/31 04:32:13;;;;;;;7.50;3.10;;;16.20;90.80;;;;;;5134424;27;20486;-75
2021/08/31 04:34:39;;;;;;;3.60;2.88;;;16.20;90.80;;;;;;5137357;27;20019;-77
2021/08/31 04:37:04;;;;;;;4.55;2.30;;;16.30;90.90;;;;;;5137105;27;20091;-77
2021/08/31 04:39:30;;;;;;;2.97;1.98;;;16.30;90.80;;;;;;5137218;27;20066;-76
2021/08/31 04:42:02;;;;;;;2.03;1.77;;;16.30;90.80;;;;;;5137035;27;20019;-78
2021/08/31 04:44:28;;;;;;;3.47;2.13;;;16.30;90.80;;;;;;5136684;27;20102;-75
2021/08/31 04:46:53;;;;;;;4.00;2.33;;;16.40;90.80;;;;;;5137049;27;20023;-76
2021/08/31 04:49:19;;;;;;;3.70;2.90;;;16.40;90.80;;;;;;5136964;27;20038;-76
2021/08/31 04:51:44;;;;;;;3.75;2.60;;;16.30;90.70;;;;;;5137018;27;20098;-77
2021/08/31 04:54:10;;;;;;;3.10;1.92;;;16.30;90.80;;;;;;5136997;27;20138;-76
2021/08/31 04:56:35;;;;;;;2.03;1.60;;;16.30;90.80;;;;;;5136866;27;20027;-75
2021/08/31 04:59:01;;;;;;;2.22;2.00;;;16.30;90.80;;;;;;5136365;27;20034;-76
2021/08/31 05:01:26;;;;;;;2.95;1.77;;;16.40;90.80;;;;;;5136564;27;20046;-76
2021/08/31 05:03:52;;;;;;;4.10;2.05;;;16.30;90.80;;;;;;5136706;27;20428;-76
2021/08/31 05:06:17;;;;;;;3.00;2.10;;;16.30;90.80;;;;;;5136739;27;20036;-76
2021/08/31 05:08:43;;;;;;;2.60;1.88;;;16.40;90.80;;;;;;5136561;27;20486;-76
2021/08/31 05:11:08;;;;;;;3.25;2.00;;;16.40;90.80;;;;;;5136692;27;20022;-77
2021/08/31 05:13:39;;;;;;;3.53;1.92;;;16.30;90.80;;;;;;5136111;27;20479;-76
2021/08/31 05:16:05;;;;;;;2.15;1.48;;;16.30;91.00;;;;;;5136414;27;20051;-76
2021/08/31 05:18:32;;;;;;;3.20;2.03;;;16.40;90.80;;;;;;5136276;27;20498;-77
2021/08/31 05:20:58;;;;;;;2.30;2.08;;;16.40;90.80;;;;;;5136290;27;20076;-76
2021/08/31 05:23:23;;;;;;;1.90;1.60;;;16.40;90.80;;;;;;5136420;27;20027;-77
2021/08/31 05:25:49;;;;;;;1.73;1.30;;;16.50;90.80;;;;;;5136372;27;20055;-76
2021/08/31 05:28:14;;;;;;;2.30;1.65;;;16.50;90.70;;;;;;5135737;27;20375;-77
2021/08/31 05:30:40;;;;;;;2.90;1.73;;;16.50;90.70;;;;;;5136128;27;20035;-77
2021/08/31 05:33:05;;;;;;;2.20;1.60;;;16.50;90.80;;;;;;5136161;27;20023;-79
2021/08/31 05:35:31;;;;;;;2.85;1.40;;;16.50;90.80;;;;;;5136020;27;20023;-76
2021/08/31 05:37:56;;;;;;;1.98;1.40;;;16.50;90.70;;;;;;5136200;27;20047;-77
2021/08/31 05:40:22;;;;;;;2.88;1.63;;;16.60;90.70;;;;;;5136014;27;20105;-76
2021/08/31 05:42:47;;;;;;;1.48;1.30;;;16.60;90.60;;;;;;5135458;27;20019;-77
2021/08/31 05:45:13;;;;;;;3.90;1.88;;;16.60;90.50;;;;;;5135978;27;20555;-77
2021/08/31 05:47:39;;;;;;;2.70;1.20;;;16.70;90.60;;;;;;5135899;27;20025;-77
2021/08/31 05:50:05;;;;;;;1.05;0.98;;;16.70;90.50;;;;;;5136135;27;20028;-76
2021/08/31 05:52:31;;;;;;;2.95;1.35;;;16.70;90.50;;;;;;5135826;27;20019;-76
2021/08/31 05:54:58;;;;;;;2.22;1.98;;;16.70;90.50;;;;;;5135654;27;20515;-76
2021/08/31 05:57:24;;;;;;;3.30;2.33;;;16.70;90.60;;;;;;5135214;27;20023;-76
2021/08/31 05:59:49;;;;;;;4.70;2.42;;;16.60;90.60;;;;;;5135483;27;20106;-76
2021/08/31 06:02:17;;;;;;;3.00;2.13;;;16.60;90.70;;;;;;5135420;27;20039;-77
2021/08/31 06:04:43;;;;;;;3.95;2.45;;;16.60;90.70;;;;;;5135684;27;20532;-77
2021/08/31 06:07:10;;;;;;;2.83;1.98;;;16.60;90.70;;;;;;5135669;27;20026;-76
2021/08/31 06:09:39;;;;;;;1.98;1.50;;;16.70;90.70;;;;;;5135522;27;20421;-79
2021/08/31 06:12:07;;;;;;;4.70;2.47;;;16.70;90.60;;;;;;5134800;27;20072;-76
2021/08/31 06:14:33;;;;;;;3.58;1.92;;;16.80;90.50;;;;;;5116891;27;20554;-76
2021/08/31 06:16:59;;;;;;;2.42;1.60;;;16.70;90.50;;;;;;5135259;27;20023;-77
2021/08/31 06:19:24;;;;;;;2.47;1.40;;;16.80;90.50;;;;;;5134816;27;20099;-76
2021/08/31 06:21:50;;;;;;;2.35;1.80;;;16.80;90.50;;;;;;5135167;27;20035;-76
2021/08/31 06:24:16;;;;;;;2.95;1.92;;;16.90;90.50;;;;;;5135281;27;20031;-77
2021/08/31 06:26:41;;;;;;;2.25;1.45;;;16.90;90.40;;;;;;5134573;27;20015;-76
2021/08/31 06:29:07;;;;;;;3.13;2.00;;;17.00;90.50;;;;;;5135130;27;20031;-77
2021/08/31 06:31:32;;;;;;;2.63;1.65;;;17.00;90.40;;;;;;5135084;27;20136;-76
2021/08/31 06:33:58;;;;;;;4.25;2.03;;;17.00;90.40;;;;;;5116412;27;20395;-77
2021/08/31 06:36:23;;;;;;;3.38;1.50;;;16.90;90.50;;;;;;5134756;27;20023;-76
2021/08/31 06:38:49;;;;;;;4.00;2.40;;;16.90;90.50;;;;;;5134777;27;20027;-76
2021/08/31 06:41:14;;;;;;;2.20;1.70;;;16.90;90.50;;;;;;5134305;27;20019;-76
2021/08/31 06:43:41;;;;;;;2.20;1.70;;;17.00;90.50;;;;;;5134813;27;20031;-76
2021/08/31 06:46:07;;;;;;;2.78;1.50;;;17.00;90.40;;;;;;5134931;27;20103;-76
2021/08/31 06:48:32;;;;;;;2.78;2.17;;;17.10;90.40;;;;;;5134694;27;20090;-75
2021/08/31 06:50:58;;;;;;;2.67;2.15;;;17.10;90.40;;;;;;5134684;27;20024;-77
2021/08/31 06:53:24;;;;;;;2.47;1.85;;;17.20;90.40;;;;;;5134703;27;20028;-76
2021/08/31 06:55:49;;;;;;;3.63;1.55;;;17.20;90.30;;;;;;5133659;27;20492;-77
2021/08/31 06:58:15;;;;;;;1.88;1.50;;;17.20;90.30;;;;;;5134497;27;20019;-77
2021/08/31 07:00:40;;;;;;;2.53;1.88;;;17.30;90.20;;;;;;5134777;27;20039;-76
2021/08/31 07:03:06;;;;;;;3.30;2.33;;;17.30;90.20;;;;;;5134530;27;20038;-77
2021/08/31 07:05:31;;;;;;;4.97;2.38;;;17.40;90.20;;;;;;5134222;27;20019;-77
2021/08/31 07:07:57;;;;;;;5.78;2.88;;;17.40;90.20;;;;;;5134390;27;20023;-76
2021/08/31 07:10:23;;;;;;;3.42;2.10;;;17.50;90.20;;;;;;5133840;27;20019;-76
2021/08/31 07:12:48;;;;;;;2.97;1.88;;;17.50;90.20;;;;;;5134403;27;20023;-76
2021/08/31 07:15:14;;;;;;;2.25;1.65;;;17.50;90.20;;;;;;5134247;27;20012;-77
2021/08/31 07:17:39;;;;;;;2.53;1.83;;;17.40;90.10;;;;;;5134218;27;20094;-77
2021/08/31 07:20:05;;;;;;;2.13;1.83;;;17.50;90.20;;;;;;5134169;28;20122;-78
2021/08/31 07:22:31;;;;;;;2.92;2.15;;;17.60;90.20;;;;;;5110530;27;20031;-76
2021/08/31 07:24:57;;;;;;;2.67;1.92;;;17.60;90.10;;;;;;5126849;27;20023;-78
2021/08/31 07:27:22;;;;;;;2.05;1.33;;;17.50;90.10;;;;;;5132850;28;20027;-78
2021/08/31 07:29:48;;;;;;;5.13;2.33;;;17.60;90.10;;;;;;5132866;28;20035;-75
2021/08/31 07:32:14;;;;;;;2.72;1.75;;;17.60;90.10;;;;;;5133599;28;20023;-76
2021/08/31 07:34:39;;;;;;;1.88;1.52;;;17.60;90.10;;;;;;5134125;28;20027;-76
2021/08/31 07:37:07;;;;;;;2.08;1.63;;;17.60;90.10;;;;;;5115768;28;20459;-76
2021/08/31 07:39:33;;;;;;;2.45;1.58;;;17.60;90.10;;;;;;5133477;28;20046;-76
2021/08/31 07:41:58;;;;;;;2.40;1.58;;;17.60;90.10;;;;;;5133873;28;20023;-74
2021/08/31 07:44:24;;;;;;;2.42;1.52;;;17.80;90.00;;;;;;5134293;28;20035;-76
2021/08/31 07:46:51;;;;;;;2.03;1.35;;;17.90;89.90;;;;;;5134173;28;20042;-79
2021/08/31 07:49:17;;;;;;;1.35;1.23;;;18.10;89.60;;;;;;5134105;28;20464;-78
2021/08/31 07:51:44;;;;;;;1.42;1.20;;;18.30;89.40;;;;;;5133998;28;20023;-78
2021/08/31 07:54:10;;;;;;;1.83;1.60;;;18.40;89.80;;;;;;5133332;28;20034;-78
2021/08/31 07:56:36;;;;;;;1.75;1.45;;;18.40;88.90;;;;;;5134043;28;20023;-77
2021/08/31 07:59:02;;;;;;;2.33;1.42;;;18.40;89.00;;;;;;5134023;28;20475;-78
2021/08/31 08:01:29;;;;;;;3.60;1.42;;;18.40;89.10;;;;;;5134115;28;20019;-75
2021/08/31 08:03:55;;;;;;;1.92;1.48;;;18.40;89.10;;;;;;5133929;28;20431;-77
2021/08/31 08:06:21;;;;;;;1.55;1.42;;;18.40;89.10;;;;;;5133896;27;20062;-76
2021/08/31 08:08:46;;;;;;;2.38;1.58;;;18.40;89.10;;;;;;5136516;27;20368;-76
2021/08/31 08:11:12;;;;;;;2.38;2.00;;;18.40;89.20;;;;;;5119411;27;20409;-76
2021/08/31 08:13:37;;;;;;;1.83;1.65;;;18.50;89.30;;;;;;5137621;27;20019;-75
2021/08/31 08:16:04;;;;;;;1.60;1.23;;;18.50;89.20;;;;;;5137850;27;20094;-76
2021/08/31 08:18:29;;;;;;;1.85;1.50;;;18.60;89.20;;;;;;5118720;27;20057;-75
2021/08/31 08:20:55;;;;;;;1.48;1.35;;;18.70;89.10;;;;;;5137036;27;20031;-78
2021/08/31 08:23:20;;;;;;;1.95;1.20;;;18.70;88.90;;;;;;5137478;27;20027;-75
2021/08/31 08:25:46;;;;;;;3.80;2.10;;;18.70;88.90;;;;;;5137639;27;20451;-76
2021/08/31 08:28:11;;;;;;;3.17;2.00;;;18.70;88.70;;;;;;5137602;27;20012;-75
2021/08/31 08:30:37;;;;;;;2.60;2.20;;;18.60;88.80;;;;;;5137322;27;20024;-75
2021/08/31 08:33:02;;;;;;;2.80;1.73;;;18.60;89.00;;;;;;5137313;27;20027;-75
2021/08/31 08:35:28;;;;;;;2.17;1.83;;;18.50;89.10;;;;;;5137063;27;20019;-77
2021/08/31 08:37:56;;;;;;;2.22;1.50;;;18.60;89.30;;;;;;5137261;27;20051;-75
2021/08/31 08:40:23;;;;;;;2.25;1.77;;;18.70;88.90;;;;;;5137231;27;20038;-75
2021/08/31 08:42:48;;;;;;;1.70;1.60;;;18.70;88.80;;;;;;5137110;27;20027;-77
2021/08/31 08:45:14;;;;;;;1.52;1.42;;;18.70;88.70;;;;;;5137175;27;20015;-76
2021/08/31 08:47:39;;;;;;;1.23;1.10;;;18.90;88.70;;;;;;5137164;27;20065;-75
2021/08/31 08:50:05;;;;;;;3.40;1.65;;;19.00;88.30;;;;;;5136623;27;20027;-77
2021/08/31 08:52:31;;;;;;;2.92;1.70;;;19.10;88.20;;;;;;5137029;27;20080;-75
2021/08/31 08:54:57;;;;;;;1.00;1.00;;;19.10;87.90;;;;;;5118502;27;20467;-76
2021/08/31 08:57:29;;;;;;;2.20;1.48;;;19.10;88.20;;;;;;5136809;27;20081;-76
2021/08/31 08:59:55;;;;;;;1.50;1.30;;;19.20;87.90;;;;;;5136847;27;20039;-76
2021/08/31 09:02:38;;;;;;;1.88;1.38;;;19.30;88.60;;;;;;5118370;27;20026;-76
2021/08/31 09:05:07;;;;;;;1.73;1.20;;;19.40;87.70;;;;;;5136194;27;20034;-75
2021/08/31 09:07:37;;;;;;;;;;;19.40;87.50;;;;;;5137047;27;20488;-78
2021/08/31 09:10:22;;;;;;;1.17;1.10;;;19.30;87.90;;;;;;5136585;27;19907;-76
2021/08/31 09:12:52;;;;;;;2.85;1.95;;;19.30;87.70;;;;;;5136663;27;20460;-76
2021/08/31 09:15:19;;;;;;;2.15;1.55;;;19.20;87.60;;;;;;5136540;27;20027;-77
2021/08/31 09:18:03;;;;;;;2.05;1.38;;;19.10;88.00;;;;;;5136000;27;20027;-77
2021/08/31 09:20:29;;;;;;;1.40;1.20;;;19.20;88.00;;;;;;5135841;27;20392;-76
2021/08/31 09:22:55;;;;;;;1.63;1.10;;;19.20;87.90;;;;;;5136382;27;20456;-76
2021/08/31 09:25:32;;;;;;;1.20;1.10;;;19.30;87.60;;;;;;5136247;27;20129;-76
2021/08/31 09:27:58;;;;;;;1.20;1.10;;;19.50;87.40;;;;;;5136310;27;20023;-77
2021/08/31 09:30:30;;;;;;;1.08;0.98;;;19.70;87.10;;;;;;5136329;27;20023;-76
2021/08/31 09:33:07;;;;;;;2.13;1.52;;;19.90;86.40;;;;;;5136275;27;20034;-76
2021/08/31 09:35:37;;;;;;;1.30;1.20;;;19.90;86.30;;;;;;5135848;27;20061;-77
2021/08/31 09:38:15;;;;;;;1.67;1.15;;;19.90;86.50;;;;;;5135916;27;20027;-77
2021/08/31 09:40:51;;;;;;;1.20;1.10;;;20.00;86.60;;;;;;5136177;27;20380;-77
2021/08/31 09:43:18;;;;;;;1.15;1.02;;;20.00;86.40;;;;;;5136063;27;20026;-77
2021/08/31 09:45:45;;;;;;;1.95;1.50;;;20.00;86.50;;;;;;5117838;27;20367;-77
2021/08/31 09:48:13;;;;;;;1.90;1.52;;;20.10;86.50;;;;;;5135349;27;20080;-75
2021/08/31 09:50:40;;;;;;;2.47;1.42;;;20.00;86.10;;;;;;5135811;27;20027;-76
2021/08/31 09:53:12;;;;;;;3.10;1.83;;;19.80;86.70;;;;;;5135897;27;20415;-77
2021/08/31 09:55:41;;;;;;;2.22;1.52;;;19.80;86.90;;;;;;5136019;27;20027;-76
2021/08/31 09:58:13;;;;;;;1.67;1.02;;;19.90;86.60;;;;;;5135722;27;20020;-81
2021/08/31 10:00:41;;;;;;;1.95;1.40;;;20.20;86.20;;;;;;5135511;27;20110;-77
2021/08/31 10:03:07;;;;;;;1.70;1.23;;;20.40;85.70;;;;;;5135188;27;20019;-80
2021/08/31 10:05:37;;;;;;;1.35;1.25;;;20.50;85.60;;;;;;5135445;27;20364;-80
2021/08/31 10:08:04;;;;;;;1.48;1.35;;;20.40;85.60;;;;;;5135719;27;20467;-78
2021/08/31 10:10:31;;;;;;;2.20;1.60;;;20.40;85.70;;;;;;5135157;27;20026;-80
2021/08/31 10:13:00;;;;;;;1.77;1.40;;;20.10;85.70;;;;;;5135402;27;20520;-79
2021/08/31 10:15:26;;;;;;;2.25;1.70;;;20.10;86.10;;;;;;5135319;27;20428;-79
2021/08/31 10:17:53;;;;;;;2.28;1.83;;;20.10;86.20;;;;;;5134873;27;20405;-79
2021/08/31 10:20:24;;;;;;;2.38;1.90;;;20.20;86.00;;;;;;5134863;27;20047;-78
2021/08/31 10:22:50;;;;;;;2.80;2.10;;;20.40;85.80;;;;;;5135504;27;20511;-77
2021/08/31 10:25:24;;;;;;;2.10;1.90;;;20.50;85.00;;;;;;5135080;27;20141;-80
2021/08/31 10:27:51;;;;;;;2.97;2.00;;;20.70;85.00;;;;;;5135189;27;20352;-76
2021/08/31 10:30:20;;;;;;;2.00;1.65;;;20.80;84.70;;;;;;5134329;27;20037;-78
2021/08/31 10:32:49;;;;;;;2.45;1.70;;;20.90;84.50;;;;;;5135150;27;20015;-79
2021/08/31 10:35:44;;;;;;;1.98;1.48;;;21.10;84.20;;;;;;5134996;27;20023;-78
2021/08/31 10:38:12;;;;;;;2.00;1.60;;;21.00;84.40;;;;;;5134944;27;20098;-79
2021/08/31 10:40:46;;;;;;;1.67;1.40;;;20.90;84.40;;;;;;5134920;27;20035;-83
2021/08/31 10:43:14;;;;;;;3.97;1.50;;;20.80;84.40;;;;;;5135034;27;20030;-81
2021/08/31 10:45:41;;;;;;;1.27;0.98;;;20.90;84.60;;;;;;5134791;27;20023;-81
2021/08/31 10:48:22;;;;;;;1.02;0.95;;;20.80;84.50;;;;;;5134174;27;20044;-81
2021/08/31 10:51:01;;;;;;;1.70;0.90;;;20.80;84.50;;;;;;5134716;27;20019;-80
2021/08/31 10:53:44;;;;;;;1.05;1.00;;;20.80;84.70;;;;;;5116207;27;20098;-78
2021/08/31 10:56:25;;;;;;;1.42;1.23;;;20.90;84.70;;;;;;5134661;27;20063;-80
2021/08/31 10:59:01;;;;;;;0.73;0.70;;;21.10;84.40;;;;;;5134652;27;20027;-80
2021/08/31 11:01:36;;;;;;;0.65;0.65;;;21.30;84.20;;;;;;5133993;27;20420;-78
2021/08/31 11:04:02;;;;;;;0.98;0.93;;;21.60;83.60;;;;;;5134568;27;20035;-80
2021/08/31 11:06:32;;;;;;;2.08;1.40;;;21.80;82.90;;;;;;5134474;27;20019;-81
2021/08/31 11:09:02;;;;;;;3.13;1.80;;;21.80;82.50;;;;;;5134405;27;20024;-80
2021/08/31 11:11:28;;;;;;;1.75;1.50;;;21.60;82.80;;;;;;5134679;27;20378;-79
2021/08/31 11:13:55;;;;;;;1.60;1.10;;;21.30;83.50;;;;;;5134409;27;20098;-82
2021/08/31 11:16:28;;;;;;;1.67;1.38;;;21.30;83.80;;;;;;5133561;27;20049;-82
2021/08/31 11:18:54;;;;;;;1.48;1.38;;;21.50;83.50;;;;;;5127591;27;20071;-78
2021/08/31 11:21:20;;;;;;;2.42;2.00;;;21.60;83.40;;;;;;5113383;28;20019;-77
2021/08/31 11:23:46;;;;;;;2.40;1.77;;;21.40;82.80;;;;;;5112361;28;20020;-76
2021/08/31 11:26:26;;;;;;;2.63;1.77;;;21.40;82.70;;;;;;5113688;28;20099;-80
2021/08/31 11:28:52;;;;;;;2.05;1.80;;;21.30;83.10;;;;;;5113606;28;20028;-76
2021/08/31 11:31:27;;;;;;;1.48;1.13;;;21.30;82.90;;;;;;5113199;28;20118;-76
2021/08/31 11:33:54;;;;;;;1.52;1.38;;;21.60;82.60;;;;;;5113532;28;20451;-76
2021/08/31 11:36:25;;;;;;;1.38;1.15;;;21.80;82.40;;;;;;5113706;28;20019;-77
2021/08/31 11:38:56;;;;;;;1.45;1.33;;;21.90;81.50;;;;;;5113443;28;20036;-76
2021/08/31 11:41:24;;;;;;;1.92;1.50;;;22.00;81.40;;;;;;5114764;28;20020;-76
2021/08/31 11:44:04;;;;;;;0.85;0.77;;;22.20;81.30;;;;;;5117876;28;20511;-76
2021/08/31 11:46:50;;;;;;;1.40;1.30;;;22.50;80.90;;;;;;5117785;28;20429;-77
2021/08/31 11:49:23;;;;;;;1.95;1.40;;;22.40;80.80;;;;;;5117790;28;20030;-76
2021/08/31 11:51:59;;;;;;;2.00;1.45;;;22.00;81.50;;;;;;5117571;28;20020;-77
2021/08/31 11:54:26;;;;;;;1.25;1.20;;;21.80;81.80;;;;;;5116421;28;20028;-78
2021/08/31 11:56:56;;;;;;;1.58;1.40;;;21.90;81.70;;;;;;5117500;28;20016;-76
2021/08/31 11:59:40;;;;;;;1.27;1.13;;;22.10;81.40;;;;;;5116776;28;20353;-75
2021/08/31 12:02:12;;;;;;;1.35;0.80;;;22.30;81.10;;;;;;5117470;28;20023;-76
2021/08/31 12:04:37;;;;;;;0.80;0.80;;;22.70;80.50;;;;;;5117416;28;20024;-76
2021/08/31 12:07:07;;;;;;;1.50;1.38;;;22.80;80.00;;;;;;5117244;28;20524;-77
2021/08/31 12:09:33;;;;;;;0.95;0.95;;;22.60;80.20;;;;;;5117290;28;20024;-77
2021/08/31 12:11:59;;;;;;;1.25;1.08;;;22.40;80.80;;;;;;5117216;28;20031;-76
2021/08/31 12:14:25;;;;;;;0.77;0.77;;;22.40;81.10;;;;;;5116710;28;20020;-78
2021/08/31 12:16:51;;;;;;;0.70;0.70;;;22.50;80.80;;;;;;5117009;28;20472;-78
2021/08/31 12:19:22;;;;;;;1.83;0.77;;;22.80;80.30;;;;;;5116897;27;20047;-78
2021/08/31 12:22:13;;;;;;;0.95;0.90;;;23.20;79.50;;;;;;5117030;28;20068;-79
2021/08/31 12:24:44;;;;;;;0.65;0.65;;;23.50;79.00;;;;;;5117282;28;20019;-77
2021/08/31 12:27:15;;;;;;;0.70;0.70;;;23.20;79.50;;;;;;5117118;28;20064;-78
2021/08/31 12:29:53;;;;;;;1.58;0.75;;;22.90;80.10;;;;;;5116334;28;20205;-78
2021/08/31 12:32:28;;;;;;;1.05;0.70;;;22.90;80.50;;;;;;5117236;28;20035;-78
2021/08/31 12:34:54;;;;;;;0.65;0.65;;;23.10;80.20;;;;;;5116812;28;20020;-77
2021/08/31 12:37:35;;;;;;;0.75;0.75;;;23.40;79.50;;;;;;5116764;28;20050;-78
2021/08/31 12:40:21;;;;;;;1.60;1.40;;;23.80;78.90;;;;;;5115235;27;20038;-78
2021/08/31 12:42:49;;;;;;;1.63;1.30;;;24.20;77.90;;;;;;5116369;28;20023;-80
2021/08/31 12:45:24;;;;;;;1.25;1.15;;;23.90;78.30;;;;;;5116680;28;20463;-80
2021/08/31 12:47:52;;;;;;;1.10;1.00;;;23.70;78.90;;;;;;5116658;28;20068;-78
2021/08/31 12:50:18;;;;;;;1.20;1.10;;;23.80;79.00;;;;;;5116642;28;20115;-78